createdAt,value
2023-04-22T03:14:59.356Z,0.373
2023-04-22T03:22:54.001Z,0.747
2023-04-22T03:26:53.850Z,1.867
2023-04-22T03:29:47.402Z,3.361
2023-04-22T03:32:20.563Z,4.482
2023-04-22T03:34:53.512Z,7.096
2023-04-22T03:37:31.655Z,11.205
2023-04-22T03:40:04.861Z,16.807
2023-04-22T03:42:37.836Z,25.398
2023-04-22T03:45:15.989Z,38.47
2023-04-22T03:48:35.069Z,64.242
2023-04-22T03:51:53.951Z,104.58
2023-04-22T03:54:27.161Z,144.918
2023-04-22T03:57:56.295Z,225.594
2023-04-22T04:00:59.959Z,328.68
2023-04-22T04:03:48.463Z,433.26
2023-04-22T04:06:21.438Z,543.816
2023-04-22T04:09:04.647Z,675.288
2023-04-22T04:11:58.251Z,824.688
2023-04-22T04:14:31.257Z,968.112
2023-04-22T04:17:14.621Z,1123.488
2023-04-22T04:19:47.733Z,1272.888
2023-04-22T04:22:20.819Z,1434.24
2023-04-22T04:24:58.963Z,1601.568
2023-04-22T04:27:47.458Z,1804.752
2023-04-22T04:30:40.878Z,2007.936
2023-04-22T04:33:19.117Z,2163.312
2023-04-22T04:35:52.212Z,2318.688
2023-04-22T04:38:25.297Z,2462.112
2023-04-22T04:41:18.754Z,2653.344
2023-04-22T04:43:51.863Z,3011.904
2023-04-22T04:46:30.227Z,3346.56
2023-04-22T04:49:08.338Z,3609.504
2023-04-22T04:51:46.607Z,3872.448
2023-04-22T04:54:35.026Z,4183.2
2023-04-22T04:57:23.451Z,4541.76
2023-04-22T04:59:56.562Z,4876.416
2023-04-22T05:02:39.900Z,5234.976
2023-04-22T05:05:12.942Z,5521.824
2023-04-22T05:07:56.366Z,5784.768
2023-04-22T05:10:39.683Z,6047.712
2023-04-22T05:13:48.609Z,6358.464
2023-04-22T05:16:37.039Z,6645.312
2023-04-22T05:19:25.452Z,6979.968
2023-04-22T05:22:13.928Z,7314.624
2023-04-22T05:25:12.618Z,7697.088
2023-04-22T05:27:56.025Z,8031.744
2023-04-22T05:30:39.403Z,8701.056
2023-04-22T05:33:22.725Z,9131.328
2023-04-22T05:36:06.119Z,9609.408
2023-04-22T05:38:44.378Z,10183.104
2023-04-22T05:41:44.818Z,10852.416
2023-04-22T05:44:26.333Z,11473.92
2023-04-22T05:47:04.548Z,12095.424
2023-04-22T05:49:58.099Z,12716.928
2023-04-22T05:52:41.463Z,13290.624
2023-04-22T05:55:19.704Z,13864.32
2023-04-22T05:57:52.932Z,14438.016
2023-04-22T06:00:56.712Z,15011.712
2023-04-22T06:03:30.004Z,15394.176
2023-04-22T06:06:08.205Z,14151.168
2023-04-22T06:08:56.679Z,15585.408
2023-04-22T06:11:40.052Z,15202.944
2023-04-22T06:14:23.408Z,15681.024
2023-04-22T06:16:56.626Z,15489.792
2023-04-22T06:19:40.136Z,14629.248
2023-04-22T06:22:13.135Z,15298.56
2023-04-22T06:24:51.385Z,14916.096
2023-04-22T06:27:39.788Z,17019.648
2023-04-22T06:30:23.175Z,19123.2
2023-04-22T06:33:06.505Z,18358.272
2023-04-22T06:36:00.035Z,16541.568
2023-04-22T06:38:48.468Z,16541.568
2023-04-22T06:41:21.560Z,17306.496
2023-04-22T06:43:59.871Z,21035.52
2023-04-22T06:46:41.362Z,15681.024
2023-04-22T06:49:12.855Z,17880.192
2023-04-22T06:52:01.336Z,21226.752
2023-04-22T06:54:49.816Z,21513.6
2023-04-22T06:57:28.150Z,21800.448
2023-04-22T07:00:11.522Z,24095.232
2023-04-22T07:02:59.999Z,26198.784
2023-04-22T07:05:33.136Z,26390.016
2023-04-22T07:08:06.259Z,26390.016
2023-04-22T07:10:44.556Z,27154.944
2023-04-22T07:13:22.837Z,26772.48
2023-04-22T07:16:20.011Z,28684.8
2023-04-22T07:19:08.416Z,27919.872
2023-04-22T07:21:41.454Z,24095.232
2023-04-22T07:24:14.624Z,26772.48
2023-04-22T07:26:58.617Z,30788.352
2023-04-22T07:29:32.776Z,23999.616
2023-04-22T07:32:22.053Z,33848.064
2023-04-22T07:34:55.172Z,33465.6
2023-04-22T07:37:38.631Z,30597.12
2023-04-22T07:40:16.967Z,32318.208
2023-04-22T07:42:55.127Z,30979.584
2023-04-22T07:45:33.391Z,31744.512
2023-04-22T07:48:11.614Z,30788.352
2023-04-22T07:50:44.752Z,35760.384
2023-04-22T07:53:17.983Z,36525.312
2023-04-22T07:55:51.180Z,37863.936
2023-04-22T07:58:49.839Z,39202.56
2023-04-22T08:01:48.402Z,40349.952
2023-04-22T08:04:21.850Z,40541.184
2023-04-22T08:06:54.761Z,40158.72
2023-04-22T08:09:27.954Z,39585.024
2023-04-22T08:12:01.164Z,41497.344
2023-04-22T08:14:49.638Z,37099.008
2023-04-22T08:17:27.913Z,37672.704
2023-04-22T08:20:01.158Z,38820.096
2023-04-22T08:22:59.735Z,37481.472
2023-04-22T08:25:43.055Z,39011.328
2023-04-22T08:28:51.855Z,39776.256
2023-04-22T08:31:25.147Z,38820.096
2023-04-22T08:34:18.601Z,39393.792
2023-04-22T08:37:01.941Z,37290.24
2023-04-22T08:39:45.303Z,39393.792
2023-04-22T08:42:23.630Z,42262.272
2023-04-22T08:45:02.063Z,41688.576
2023-04-22T08:47:39.082Z,37863.936
2023-04-22T08:50:12.131Z,35377.92
2023-04-22T08:52:42.913Z,40923.648
2023-04-22T08:55:26.240Z,43218.432
2023-04-22T08:57:59.408Z,43792.128
2023-04-22T09:00:37.718Z,43218.432
2023-04-22T09:03:41.526Z,44748.288
2023-04-22T09:06:23.576Z,46851.84
2023-04-22T09:09:58.073Z,48955.392
2023-04-22T09:12:31.184Z,47999.232
2023-04-22T09:15:04.427Z,47234.304
2023-04-22T09:17:37.537Z,48190.464
2023-04-22T09:20:20.903Z,46469.376
2023-04-22T09:23:34.855Z,48955.392
2023-04-22T09:26:08.013Z,50102.784
2023-04-22T09:28:41.131Z,51250.176
2023-04-22T09:31:24.637Z,50867.712
2023-04-22T09:34:02.810Z,52015.104
2023-04-22T09:36:51.268Z,50102.784
2023-04-22T09:39:29.593Z,50867.712
2023-04-22T09:42:02.747Z,52397.568
2023-04-22T09:44:35.880Z,51632.64
2023-04-22T09:47:14.127Z,48955.392
2023-04-22T09:49:47.211Z,53162.496
2023-04-22T09:52:30.589Z,51250.176
2023-04-22T09:55:18.919Z,52397.568
2023-04-22T09:58:12.560Z,52015.104
2023-04-22T10:00:55.969Z,53927.424
2023-04-22T10:03:29.157Z,56222.208
2023-04-22T10:06:07.227Z,53544.96
2023-04-22T10:08:50.741Z,53162.496
2023-04-22T10:11:23.810Z,56222.208
2023-04-22T10:14:00.945Z,55839.744
2023-04-22T10:16:39.191Z,56222.208
2023-04-22T10:19:22.368Z,53162.496
2023-04-22T10:22:05.819Z,52397.568
2023-04-22T10:24:38.981Z,41497.344
2023-04-22T10:27:12.213Z,40732.416
2023-04-22T10:29:55.259Z,43792.128
2023-04-22T10:32:26.945Z,46851.84
2023-04-22T10:34:59.497Z,47808
2023-04-22T10:37:37.667Z,53162.496
2023-04-22T10:40:10.920Z,53162.496
2023-04-22T10:42:54.168Z,53544.96
2023-04-22T10:45:27.386Z,55839.744
2023-04-22T10:48:15.744Z,51632.64
2023-04-22T10:50:59.061Z,52780.032
2023-04-22T10:53:33.756Z,55457.28
2023-04-22T10:56:10.819Z,57369.6
2023-04-22T10:58:43.374Z,55074.816
2023-04-22T11:01:26.504Z,60811.776
2023-04-22T11:04:45.614Z,60811.776
2023-04-22T11:08:30.125Z,61959.168
2023-04-22T11:11:08.386Z,63106.56
2023-04-22T11:13:41.449Z,59281.92
2023-04-22T11:16:24.776Z,61194.24
2023-04-22T11:19:08.146Z,60046.848
2023-04-22T11:21:46.368Z,51632.64
2023-04-22T11:24:19.455Z,55074.816
2023-04-22T11:26:57.838Z,48764.16
2023-04-22T11:29:44.322Z,55457.28
2023-04-22T11:32:18.976Z,48955.392
2023-04-22T11:34:52.307Z,56222.208
2023-04-22T11:37:22.550Z,58134.528
2023-04-22T11:40:31.113Z,46278.144
2023-04-22T11:43:06.679Z,46660.608
2023-04-22T11:45:54.218Z,58134.528
2023-04-22T11:48:27.401Z,61576.704
2023-04-22T11:51:05.664Z,61194.24
2023-04-22T11:53:48.968Z,60429.312
2023-04-22T11:57:43.611Z,60046.848
2023-04-22T12:00:42.281Z,60046.848
2023-04-22T12:03:17.200Z,54309.888
2023-04-22T12:06:31.115Z,59664.384
2023-04-22T12:09:19.471Z,58134.528
2023-04-22T12:12:07.859Z,58134.528
2023-04-22T12:14:51.221Z,59281.92
2023-04-22T12:17:29.450Z,56222.208
2023-04-22T12:20:12.737Z,57369.6
2023-04-22T12:22:56.071Z,52780.032
2023-04-22T12:25:34.251Z,56222.208
2023-04-22T12:28:07.281Z,51632.64
2023-04-22T12:30:37.758Z,54692.352
2023-04-22T12:33:31.395Z,53162.496
2023-04-22T12:36:14.644Z,50867.712
2023-04-22T12:38:47.739Z,51250.176
2023-04-22T12:42:01.569Z,52397.568
2023-04-22T12:44:39.832Z,54692.352
2023-04-22T12:47:23.163Z,55839.744
2023-04-22T12:50:01.473Z,56222.208
2023-04-22T12:53:40.873Z,55457.28
2023-04-22T12:56:34.378Z,56987.136
2023-04-22T12:59:12.609Z,56222.208
2023-04-22T13:01:50.896Z,54309.888
2023-04-22T13:04:29.159Z,54692.352
2023-04-22T13:07:44.302Z,53927.424
2023-04-22T13:10:31.456Z,54309.888
2023-04-22T13:13:45.557Z,50102.784
2023-04-22T13:16:18.519Z,52397.568
2023-04-22T13:18:56.793Z,55074.816
2023-04-22T13:22:15.858Z,54309.888
2023-04-22T13:25:24.631Z,53162.496
2023-04-22T13:28:38.544Z,49720.32
2023-04-22T13:31:37.256Z,51250.176
2023-04-22T13:35:02.781Z,48190.464
2023-04-22T13:37:39.625Z,47425.536
2023-04-22T13:40:13.404Z,44557.056
2023-04-22T13:42:45.018Z,46469.376
2023-04-22T13:45:30.870Z,44939.52
2023-04-22T13:48:04.022Z,43218.432
2023-04-22T13:50:47.380Z,43600.896
2023-04-22T13:53:25.628Z,41114.88
2023-04-22T13:55:58.738Z,40349.952
2023-04-22T13:58:31.934Z,42835.968
2023-04-22T14:01:05.152Z,42453.504
2023-04-22T14:04:49.694Z,43792.128
2023-04-22T14:07:22.884Z,46278.144
2023-04-22T14:09:56.066Z,42071.04
2023-04-22T14:12:34.231Z,45704.448
2023-04-22T14:15:17.581Z,46278.144
2023-04-22T14:18:01.033Z,46086.912
2023-04-22T14:20:39.149Z,45704.448
2023-04-22T14:23:22.433Z,44557.056
2023-04-22T14:26:21.080Z,44365.824
2023-04-22T14:28:59.246Z,42835.968
2023-04-22T14:31:37.498Z,44365.824
2023-04-22T14:34:31.049Z,44174.592
2023-04-22T14:37:24.549Z,42262.272
2023-04-22T14:40:07.873Z,41688.576
2023-04-22T14:42:41.042Z,40349.952
2023-04-22T14:45:24.431Z,41306.112
2023-04-22T14:47:57.601Z,39585.024
2023-04-22T14:50:40.878Z,39202.56
2023-04-22T14:53:14.041Z,38246.4
2023-04-22T14:55:47.200Z,34995.456
2023-04-22T14:58:27.917Z,25625.088
2023-04-22T15:01:01.019Z,26772.48
2023-04-22T15:03:44.723Z,24860.16
2023-04-22T15:06:17.580Z,26581.248
2023-04-22T15:09:26.504Z,27728.64
2023-04-22T15:12:04.760Z,30023.424
2023-04-22T15:14:37.877Z,24668.928
2023-04-22T15:17:21.328Z,20939.904
2023-04-22T15:19:59.500Z,15394.176
2023-04-22T15:22:53.037Z,12047.616
2023-04-22T15:25:26.222Z,11043.648
2023-04-22T15:27:59.301Z,10804.608
2023-04-22T15:30:47.763Z,10469.952
2023-04-22T15:33:20.974Z,10135.296
2023-04-22T15:36:29.848Z,9896.256
2023-04-22T15:39:23.450Z,9609.408
2023-04-22T15:42:01.675Z,9465.984
2023-04-22T15:44:34.790Z,9131.328
2023-04-22T15:47:18.154Z,9179.136
2023-04-22T15:49:51.341Z,9179.136
2023-04-22T15:52:50.001Z,9035.712
2023-04-22T15:55:43.549Z,8987.904
2023-04-22T15:59:28.131Z,9035.712
2023-04-22T16:02:06.437Z,9083.52
2023-04-22T16:05:30.427Z,9083.52
2023-04-22T16:09:35.529Z,8892.288
2023-04-22T16:12:34.500Z,8844.48
2023-04-22T16:15:22.641Z,9226.944
2023-04-22T16:17:55.737Z,9226.944
2023-04-22T16:20:28.827Z,9322.56
2023-04-22T16:24:03.150Z,9609.408
2023-04-22T16:26:46.502Z,9465.984
2023-04-22T16:29:50.272Z,9226.944
2023-04-22T16:32:43.878Z,8796.672
2023-04-22T16:35:32.318Z,8605.44
2023-04-22T16:39:01.621Z,8892.288
2023-04-22T16:41:44.857Z,7983.936
2023-04-22T16:44:17.949Z,7219.008
2023-04-22T16:47:06.350Z,6597.504
2023-04-22T16:49:54.862Z,6454.08
2023-04-22T16:52:27.942Z,5880.384
2023-04-22T16:55:16.461Z,5426.208
2023-04-22T16:57:54.729Z,5187.168
2023-04-22T17:00:38.014Z,5019.84
2023-04-22T17:03:21.398Z,4804.704
2023-04-22T17:06:09.722Z,4493.952
2023-04-22T17:08:42.898Z,4231.008
2023-04-22T17:11:26.254Z,3968.064
2023-04-22T17:14:04.549Z,3776.832
2023-04-22T17:16:52.837Z,3561.696
2023-04-22T17:20:01.694Z,3657.312
2023-04-22T17:22:39.929Z,3752.928
2023-04-22T17:25:28.372Z,3633.408
2023-04-22T17:28:01.581Z,3346.56
2023-04-22T17:31:05.320Z,2868.48
2023-04-22T17:33:43.528Z,2330.64
2023-04-22T17:36:21.703Z,1995.984
2023-04-22T17:39:10.131Z,1780.848
2023-04-22T17:41:43.257Z,1565.712
2023-04-22T17:44:16.340Z,1356.552
2023-04-22T17:46:54.569Z,1189.224
2023-04-22T17:49:43.244Z,1033.848
2023-04-22T17:52:31.379Z,884.448
2023-04-22T17:55:04.501Z,764.928
2023-04-22T17:57:58.011Z,648.396
2023-04-22T18:00:36.251Z,555.768
2023-04-22T18:03:09.476Z,466.128
2023-04-22T18:05:57.749Z,379.476
2023-04-22T18:08:30.829Z,300.294
2023-04-22T18:11:19.213Z,231.57
2023-04-22T18:14:17.793Z,171.81
2023-04-22T18:17:06.252Z,127.737
2023-04-22T18:19:39.631Z,95.616
2023-04-22T18:22:27.702Z,68.35
2023-04-22T18:25:16.088Z,47.061
2023-04-22T18:28:19.754Z,31.374
2023-04-22T18:30:52.834Z,21.289
2023-04-22T18:33:30.954Z,14.566
2023-04-22T18:36:24.478Z,9.337
2023-04-22T18:40:54.790Z,4.482
2023-04-22T18:44:54.578Z,2.614
2023-04-22T18:49:40.396Z,1.12
2023-04-22T18:52:49.228Z,0.373
2023-04-22T19:00:18.239Z,0
